Time;durP1;ratioP1;P1;durP2;ratioP2;P2;SDS_P1;SDS_P2;PMS_P1;PMS_P2;Temp;Humidity;BMP_temperature;BMP_pressure;BME280_temperature;BME280_humidity;BME280_pressure;Samples;Min_cycle;Max_cycle;Signal;HPM_P1;HPM_P2
2022/10/17 00:00:40;;;;;;;11.43;8.43;;;;;;;7.52;100.00;62774.38;4965671;29;20252;-76
2022/10/17 00:03:07;;;;;;;9.07;6.53;;;;;;;7.54;100.00;62775.91;4965648;28;20267;-76
2022/10/17 00:05:34;;;;;;;14.30;8.38;;;;;;;7.51;100.00;62775.84;4963461;29;20272;-75
2022/10/17 00:08:02;;;;;;;10.43;7.53;;;;;;;7.49;100.00;62770.75;4966725;29;20224;-76
2022/10/17 00:10:29;;;;;;;10.98;6.43;;;;;;;7.46;100.00;62768.16;4964055;29;20401;-75
2022/10/17 00:12:56;;;;;;;7.03;5.35;;;;;;;7.41;100.00;62757.41;4965534;29;20548;-75
2022/10/17 00:15:23;;;;;;;6.93;5.40;;;;;;;7.39;100.00;62762.94;4967936;29;20200;-74
2022/10/17 00:17:50;;;;;;;5.60;5.10;;;;;;;7.40;100.00;62764.00;4964660;28;20289;-76
2022/10/17 00:20:17;;;;;;;6.53;5.57;;;;;;;7.40;100.00;62761.47;4966255;29;20268;-75
2022/10/17 00:22:44;;;;;;;6.80;5.40;;;;;;;7.37;100.00;62758.88;4967232;29;20228;-75
2022/10/17 00:25:13;;;;;;;6.70;5.43;;;;;;;7.35;100.00;62761.38;4966520;29;20240;-75
2022/10/17 00:27:41;;;;;;;10.10;5.78;;;;;;;7.34;100.00;62755.78;4964308;28;20232;-75
2022/10/17 00:30:11;;;;;;;6.90;6.30;;;;;;;7.36;100.00;62755.31;4966308;29;20223;-75
2022/10/17 00:32:38;;;;;;;8.73;6.75;;;;;;;7.57;100.00;62782.06;4965334;29;20233;-75
2022/10/17 00:35:06;;;;;;;7.88;6.78;;;;;;;7.52;100.00;62774.38;4964778;29;20213;-75
2022/10/17 00:37:33;;;;;;;7.43;6.32;;;;;;;7.48;100.00;62770.22;4963184;29;20221;-76
2022/10/17 00:40:00;;;;;;;9.63;7.68;;;;;;;7.47;100.00;62769.19;4963981;29;20224;-75
2022/10/17 00:42:28;;;;;;;10.65;7.00;;;;;;;7.43;100.00;62762.53;4946622;29;20226;-75
2022/10/17 00:45:17;;;;;;;7.70;6.90;;;;;;;7.36;100.00;62757.84;4947639;29;20714;-76
2022/10/17 00:47:48;;;;;;;7.70;6.80;;;;;;;7.33;100.00;62756.75;4966280;28;20217;-75
2022/10/17 00:50:15;;;;;;;9.32;6.82;;;;;;;7.34;100.00;62752.72;4964026;29;20544;-75
2022/10/17 00:52:44;;;;;;;10.90;7.32;;;;;;;7.30;100.00;62751.66;4965640;28;20296;-76
2022/10/17 00:55:14;;;;;;;11.15;7.60;;;;;;;7.20;100.00;62743.84;4963827;29;20209;-75
2022/10/17 00:57:44;;;;;;;10.38;7.65;;;;;;;7.22;100.00;62745.41;4965501;29;20222;-74
2022/10/17 01:00:12;;;;;;;15.45;7.90;;;;;;;7.19;100.00;62739.78;4957003;29;20189;-76
2022/10/17 01:02:39;;;;;;;8.23;7.00;;;;;;;7.17;100.00;62737.72;4965957;28;20287;-75
2022/10/17 01:05:08;;;;;;;9.25;6.95;;;;;;;7.16;100.00;62734.16;4961786;29;20233;-75
2022/10/17 01:07:35;;;;;;;13.50;7.82;;;;;;;7.14;100.00;62734.63;4964240;29;20225;-76
2022/10/17 01:10:02;;;;;;;9.05;7.10;;;;;;;7.15;100.00;62741.22;4965433;28;20204;-74
2022/10/17 01:12:39;;;;;;;7.65;6.70;;;;;;;7.16;100.00;62739.22;4963838;28;20220;-75
2022/10/17 01:15:13;;;;;;;10.55;7.30;;;;;;;7.15;100.00;62741.22;4964445;29;20489;-77
2022/10/17 01:17:53;;;;;;;9.55;7.57;;;;;;;7.10;100.00;62738.09;4950629;29;20264;-75
2022/10/17 01:21:10;;;;;;;9.63;7.00;;;;;;;7.14;100.00;62734.63;4965696;29;20208;-76
2022/10/17 01:24:03;;;;;;;10.02;6.30;;;;;;;7.03;100.00;62731.38;4964966;28;20392;-75
2022/10/17 01:26:47;;;;;;;6.88;5.97;;;;;;;7.01;100.00;62719.72;4940285;29;20276;-74
2022/10/17 01:29:41;;;;;;;7.13;6.50;;;;;;;6.96;100.00;62719.09;4964870;29;20501;-76
2022/10/17 01:32:16;;;;;;;7.68;6.65;;;;;;;6.95;100.00;62718.56;4962552;28;20393;-76
2022/10/17 01:34:51;;;;;;;6.03;5.53;;;;;;;6.90;100.00;62710.88;4965544;29;20207;-74
2022/10/17 01:37:27;;;;;;;8.82;7.00;;;;;;;6.91;100.00;62706.34;4964824;29;20224;-75
2022/10/17 01:40:03;;;;;;;6.30;5.15;;;;;;;6.89;100.00;62714.41;4959835;29;20203;-76
2022/10/17 01:42:35;;;;;;;5.70;5.10;;;;;;;6.87;100.00;62707.28;4967219;28;20253;-75
2022/10/17 01:45:10;;;;;;;6.65;4.82;;;;;;;6.81;100.00;62701.63;4962530;29;20205;-76
2022/10/17 01:47:39;;;;;;;4.50;4.15;;;;;;;6.88;100.00;62705.78;4962779;28;20283;-75
2022/10/17 01:50:11;;;;;;;4.60;4.30;;;;;;;6.85;100.00;62705.72;4964777;29;20220;-74
2022/10/17 01:52:45;;;;;;;4.65;4.30;;;;;;;6.81;100.00;62701.63;4965041;28;20236;-75
2022/10/17 01:55:16;;;;;;;4.15;3.85;;;;;;;6.73;100.00;62692.84;4963482;29;20426;-76
2022/10/17 01:57:49;;;;;;;3.92;3.53;;;;;;;6.69;100.00;62691.25;4963073;29;20221;-75
2022/10/17 02:00:19;;;;;;;4.70;4.22;;;;;;;6.62;100.00;62681.50;4963607;29;20243;-76
2022/10/17 02:02:49;;;;;;;4.05;3.70;;;;;;;6.57;100.00;62678.88;4961645;29;20216;-76
2022/10/17 02:05:18;;;;;;;8.20;4.80;;;;;;;6.56;100.00;62678.34;4965061;29;20234;-75
2022/10/17 02:07:45;;;;;;;7.20;4.85;;;;;;;6.54;100.00;62673.75;4964455;28;20221;-75
2022/10/17 02:10:31;;;;;;;6.90;4.30;;;;;;;6.51;100.00;62672.69;4964010;29;20215;-76
2022/10/17 02:13:06;;;;;;;5.43;5.00;;;;;;;6.49;100.00;62665.56;4963376;28;20299;-75
2022/10/17 02:15:59;;;;;;;6.03;5.50;;;;;;;6.42;100.00;62663.91;4962293;29;20208;-75
2022/10/17 02:18:46;;;;;;;5.88;5.05;;;;;;;6.45;100.00;62667.03;4960419;28;20335;-77
2022/10/17 02:21:20;;;;;;;9.13;5.43;;;;;;;6.43;100.00;62666.97;4965030;28;20220;-75
2022/10/17 02:23:54;;;;;;;6.97;4.95;;;;;;;6.45;100.00;62667.03;4968904;28;20260;-76
2022/10/17 02:26:26;;;;;;;7.22;5.03;;;;;;;6.40;100.00;62656.28;4965980;29;20243;-75
2022/10/17 02:29:03;;;;;;;4.60;4.20;;;;;;;6.39;100.00;62660.81;4968303;29;20229;-76
2022/10/17 02:31:33;;;;;;;7.47;4.07;;;;;;;6.40;100.00;62658.81;4968709;29;20207;-76
2022/10/17 02:34:05;;;;;;;7.95;5.53;;;;;;;6.40;100.00;62661.34;4961935;28;20259;-75
2022/10/17 02:36:38;;;;;;;5.25;4.72;;;;;;;6.39;100.00;62660.31;4969335;29;20188;-75
2022/10/17 02:39:06;;;;;;;7.18;4.78;;;;;;;6.41;100.00;62660.38;4967030;28;20227;-75
2022/10/17 02:41:35;;;;;;;5.30;4.80;;;;;;;6.46;100.00;62662.47;4967408;29;20248;-75
2022/10/17 02:44:03;;;;;;;4.82;4.35;;;;;;;6.48;100.00;62670.13;4963297;29;20224;-76
2022/10/17 02:46:31;;;;;;;7.60;5.00;;;;;;;6.52;100.00;62671.69;4968673;29;20239;-75
2022/10/17 02:49:01;;;;;;;5.95;5.10;;;;;;;6.42;100.00;62660.88;4967738;28;20224;-76
2022/10/17 02:51:37;;;;;;;6.55;5.85;;;;;;;6.61;100.00;62680.47;4962007;29;20237;-76
2022/10/17 02:54:10;;;;;;;6.10;5.13;;;;;;;6.58;100.00;62674.84;4954286;29;20216;-76
2022/10/17 02:56:41;;;;;;;7.93;5.90;;;;;;;6.53;100.00;62670.22;4967538;29;20189;-76
2022/10/17 02:59:12;;;;;;;18.48;9.07;;;;;;;6.52;100.00;62674.22;4955582;28;20232;-76
2022/10/17 03:01:39;;;;;;;14.63;9.80;;;;;;;6.50;100.00;62671.66;4962788;29;20208;-76
2022/10/17 03:04:08;;;;;;;21.15;9.15;;;;;;;6.55;100.00;62674.81;4967499;28;20557;-75
2022/10/17 03:06:36;;;;;;;16.85;8.10;;;;;;;6.54;100.00;62673.75;4966748;29;20248;-76
2022/10/17 03:09:03;;;;;;;11.98;7.78;;;;;;;6.55;100.00;62674.28;4965059;28;20228;-76
2022/10/17 03:11:30;;;;;;;11.50;7.63;;;;;;;6.50;100.00;62667.13;4964505;29;20220;-76
2022/10/17 03:13:57;;;;;;;11.73;7.75;;;;;;;6.50;100.00;62672.19;4967433;28;20224;-75
2022/10/17 03:16:24;;;;;;;9.70;7.32;;;;;;;6.48;100.00;62667.59;4966888;29;20435;-75
2022/10/17 03:18:51;;;;;;;9.30;6.97;;;;;;;6.48;100.00;62669.59;4962380;28;20263;-77
2022/10/17 03:21:18;;;;;;;13.90;8.63;;;;;;;6.46;100.00;62665.00;4967567;29;20370;-76
2022/10/17 03:23:47;;;;;;;7.50;6.35;;;;;;;6.43;100.00;62661.91;4970732;28;20227;-77
2022/10/17 03:26:14;;;;;;;10.40;6.88;;;;;;;6.43;100.00;62659.38;4968308;29;20279;-75
2022/10/17 03:28:41;;;;;;;8.13;6.22;;;;;;;6.40;100.00;62659.31;4964393;28;20292;-77
2022/10/17 03:31:10;;;;;;;9.75;6.13;;;;;;;6.36;100.00;62652.69;4968768;29;20211;-75
2022/10/17 03:33:38;;;;;;;8.00;5.82;;;;;;;6.30;100.00;62649.00;4969459;28;20249;-76
2022/10/17 03:36:07;;;;;;;8.23;6.13;;;;;;;6.26;100.00;62644.38;4966558;29;20269;-76
2022/10/17 03:38:34;;;;;;;7.35;6.28;;;;;;;6.22;100.00;62643.31;4963835;28;20225;-75
2022/10/17 03:41:03;;;;;;;6.07;5.47;;;;;;;6.20;100.00;62638.72;4966275;29;20533;-75
2022/10/17 03:43:30;;;;;;;6.60;5.65;;;;;;;6.12;100.00;62633.00;4966999;29;20260;-74
2022/10/17 03:45:57;;;;;;;6.40;5.30;;;;;;;6.10;100.00;62625.34;4963875;29;20235;-75
2022/10/17 03:48:24;;;;;;;8.95;6.65;;;;;;;6.09;100.00;62629.38;4967434;29;20523;-75
2022/10/17 03:50:51;;;;;;;11.07;6.10;;;;;;;6.09;100.00;62626.84;4966705;29;20208;-75
2022/10/17 03:53:18;;;;;;;6.35;5.05;;;;;;;5.99;100.00;62614.03;4968543;29;20292;-75
2022/10/17 03:55:45;;;;;;;6.22;5.63;;;;;;;5.94;100.00;62611.91;4965137;29;20375;-76
2022/10/17 03:58:14;;;;;;;5.95;5.35;;;;;;;5.88;100.00;62605.72;4966762;28;20287;-75
2022/10/17 04:00:41;;;;;;;8.88;5.88;;;;;;;5.84;100.00;62599.59;4968082;29;20209;-76
2022/10/17 04:03:07;;;;;;;4.70;4.30;;;;;;;5.78;100.00;62592.88;4965562;28;20260;-76
2022/10/17 04:05:34;;;;;;;6.68;4.82;;;;;;;5.70;100.00;62585.16;4966037;29;20208;-75
2022/10/17 04:08:01;;;;;;;8.95;6.90;;;;;;;5.64;100.00;62580.97;4966540;28;20544;-76
2022/10/17 04:10:28;;;;;;;7.07;5.85;;;;;;;5.58;100.00;62575.31;4966904;29;20200;-75
2022/10/17 04:12:55;;;;;;;5.25;4.75;;;;;;;5.56;100.00;62575.25;4959223;29;20293;-75
2022/10/17 04:15:23;;;;;;;8.82;5.00;;;;;;;5.54;100.00;62573.22;4964892;29;20236;-76
2022/10/17 04:17:50;;;;;;;5.53;5.03;;;;;;;5.51;100.00;62565.56;4973975;28;20236;-76
2022/10/17 04:20:17;;;;;;;6.47;5.05;;;;;;;5.46;100.00;62562.44;4967621;29;20204;-76
2022/10/17 04:22:44;;;;;;;4.97;4.50;;;;;;;5.54;100.00;62578.25;4965547;28;20412;-76
2022/10/17 04:25:10;;;;;;;6.70;6.03;;;;;;;5.53;100.00;62570.16;4969435;29;20201;-75
2022/10/17 04:27:37;;;;;;;12.55;6.32;;;;;;;5.55;100.00;62571.69;4964906;28;20243;-77
2022/10/17 04:30:05;;;;;;;6.43;5.82;;;;;;;5.48;100.00;62567.00;4955413;29;20212;-76
2022/10/17 04:32:36;;;;;;;6.32;5.75;;;;;;;5.54;100.00;62570.69;4952147;29;20224;-76
2022/10/17 04:35:04;;;;;;;15.98;12.18;;;;;;;5.58;100.00;62575.31;4965992;29;20201;-77
2022/10/17 04:37:32;;;;;;;11.48;8.65;;;;;;;5.63;100.00;62579.94;4966635;29;20542;-75
2022/10/17 04:39:59;;;;;;;10.35;8.77;;;;;;;5.64;100.00;62578.44;4965286;29;20207;-76
2022/10/17 04:42:25;;;;;;;11.63;9.30;;;;;;;5.68;100.00;62587.63;4962740;28;20521;-76
2022/10/17 04:44:52;;;;;;;16.15;10.90;;;;;;;5.71;100.00;62593.75;4965018;28;20285;-76
2022/10/17 04:47:19;;;;;;;13.40;8.57;;;;;;;5.76;100.00;62593.34;4965683;29;20232;-76
2022/10/17 04:49:47;;;;;;;10.30;7.43;;;;;;;5.72;100.00;62586.69;4956334;29;20235;-76
2022/10/17 04:52:14;;;;;;;10.27;7.38;;;;;;;5.91;100.00;62611.34;4964623;29;20538;-76
2022/10/17 04:54:41;;;;;;;8.30;7.10;;;;;;;5.94;100.00;62611.41;4955385;29;20509;-75
2022/10/17 04:57:08;;;;;;;9.63;7.38;;;;;;;5.93;100.00;62607.84;4966298;29;20232;-76
2022/10/17 04:59:35;;;;;;;9.35;6.70;;;;;;;5.93;100.00;62612.88;4962329;29;20205;-76
2022/10/17 05:02:02;;;;;;;10.05;7.28;;;;;;;5.92;100.00;62612.38;4965401;28;20201;-75
2022/10/17 05:04:28;;;;;;;7.95;6.78;;;;;;;5.94;100.00;62608.88;4966310;29;20233;-75
2022/10/17 05:06:57;;;;;;;11.48;7.78;;;;;;;5.95;100.00;62615.47;4964818;28;20236;-76
2022/10/17 05:09:23;;;;;;;8.95;7.90;;;;;;;5.95;100.00;62618.00;4962766;29;20765;-76
2022/10/17 05:11:50;;;;;;;13.43;8.63;;;;;;;6.03;100.00;62618.13;4966997;28;20200;-77
2022/10/17 05:14:17;;;;;;;8.13;7.22;;;;;;;6.00;100.00;62620.09;4963302;29;20564;-75
2022/10/17 05:16:44;;;;;;;12.18;9.35;;;;;;;6.06;100.00;62624.28;4951152;28;20205;-76
2022/10/17 05:19:12;;;;;;;10.43;7.85;;;;;;;6.09;100.00;62624.84;4963860;29;20204;-76
2022/10/17 05:21:38;;;;;;;14.95;8.68;;;;;;;6.10;100.00;62628.41;4964367;29;20443;-76
2022/10/17 05:24:08;;;;;;;8.88;7.78;;;;;;;6.12;100.00;62630.47;4964293;29;20260;-76
2022/10/17 05:26:35;;;;;;;14.85;8.40;;;;;;;6.18;100.00;62636.66;4964282;29;20429;-76
2022/10/17 05:29:03;;;;;;;12.43;7.80;;;;;;;6.21;100.00;62639.75;4956530;28;20225;-77
2022/10/17 05:31:31;;;;;;;11.63;9.20;;;;;;;6.27;100.00;62647.94;4946212;29;20514;-76
2022/10/17 05:34:00;;;;;;;10.50;8.20;;;;;;;6.33;100.00;62649.06;4956899;29;20217;-76
2022/10/17 05:36:27;;;;;;;9.23;8.25;;;;;;;6.40;100.00;62661.84;4962898;29;20219;-76
2022/10/17 05:38:54;;;;;;;10.68;8.10;;;;;;;6.55;100.00;62674.28;4961482;28;20244;-76
2022/10/17 05:41:22;;;;;;;17.85;11.15;;;;;;;6.68;100.00;62690.72;4965813;29;20497;-77
2022/10/17 05:43:49;;;;;;;14.80;10.85;;;;;;;6.71;100.00;62690.78;4964106;28;20247;-76
2022/10/17 05:46:16;;;;;;;13.80;9.65;;;;;;;6.91;100.00;62711.41;4962952;29;20201;-76
2022/10/17 05:48:43;;;;;;;14.20;10.05;;;;;;;7.07;100.00;62724.88;4964982;28;20212;-76
2022/10/17 05:51:10;;;;;;;17.95;10.88;;;;;;;7.19;100.00;62735.25;4966270;29;20196;-76
2022/10/17 05:53:39;;;;;;;14.95;9.85;;;;;;;7.24;100.00;62744.94;4962745;28;20278;-76
2022/10/17 05:56:08;;;;;;;13.60;10.57;;;;;;;7.32;100.00;62751.19;4962541;29;20197;-76
2022/10/17 05:58:36;;;;;;;14.80;10.00;;;;;;;7.30;100.00;62749.13;4964228;28;20590;-75
2022/10/17 06:01:05;;;;;;;14.02;9.63;;;;;;;7.22;100.00;62742.88;4963350;29;20201;-76
2022/10/17 06:03:33;;;;;;;12.13;8.65;;;;;;;7.18;100.00;62739.25;4960266;28;20456;-76
2022/10/17 06:06:04;;;;;;;13.32;9.05;;;;;;;7.22;100.00;62742.88;4962870;29;20393;-76
2022/10/17 06:08:31;;;;;;;12.43;10.10;;;;;;;7.11;100.00;62731.53;4962273;28;20568;-76
2022/10/17 06:10:58;;;;;;;17.10;9.63;;;;;;;7.15;100.00;62733.13;4964530;29;20212;-76
2022/10/17 06:13:25;;;;;;;16.23;10.82;;;;;;;7.08;100.00;62726.41;4960775;28;20351;-76
2022/10/17 06:15:53;;;;;;;17.77;11.35;;;;;;;7.17;100.00;62737.72;4961503;29;20200;-76
2022/10/17 06:18:20;;;;;;;21.73;12.18;;;;;;;7.31;100.00;62749.63;4960333;28;20229;-77
2022/10/17 06:20:47;;;;;;;18.00;11.90;;;;;;;7.40;100.00;62761.97;4961908;29;20197;-76
2022/10/17 06:23:14;;;;;;;27.95;11.82;;;;;;;7.48;100.00;62770.22;4960209;29;20221;-75
2022/10/17 06:25:42;;;;;;;23.75;13.20;;;;;;;7.51;100.00;62772.81;4959538;29;20276;-75
2022/10/17 06:28:09;;;;;;;16.95;11.90;;;;;;;7.59;100.00;62776.50;4963749;29;20446;-76
2022/10/17 06:30:38;;;;;;;19.38;11.55;;;;;;;7.76;100.00;62801.66;4962967;29;20197;-75
2022/10/17 06:33:06;;;;;;;23.65;12.95;;;;;;;7.88;100.00;62814.06;4964365;29;20228;-76
2022/10/17 06:35:33;;;;;;;18.88;12.43;;;;;;;7.88;100.00;62811.53;4963657;29;20494;-75
2022/10/17 06:38:00;;;;;;;19.13;11.68;;;;;;;7.88;100.00;62811.00;4964088;29;20221;-76
2022/10/17 06:40:27;;;;;;;29.50;13.40;;;;;;;7.95;100.00;62818.22;4965152;29;20393;-76
2022/10/17 06:42:53;;;;;;;24.85;11.00;;;;;;;8.13;100.00;62839.34;4964984;29;20228;-76
2022/10/17 06:45:20;;;;;;;17.23;11.10;;;;;;;8.30;100.00;62856.94;4963443;29;20200;-77
2022/10/17 06:47:48;;;;;;;17.55;11.77;;;;;;;8.29;100.00;62853.38;4964595;29;20457;-76
2022/10/17 06:50:17;;;;;;;17.88;11.32;;;;;;;8.44;100.00;62873.44;4951455;29;20447;-77
2022/10/17 06:52:43;;;;;;;17.00;11.50;;;;;;;8.49;100.00;62870.97;4956806;29;20300;-76
2022/10/17 06:55:10;;;;;;;17.42;11.00;;;;;;;8.55;100.00;62882.75;4955058;29;20424;-76
2022/10/17 06:57:37;;;;;;;16.88;10.68;;;;;;;8.66;100.00;62888.53;4946010;29;20228;-77
2022/10/17 07:00:04;;;;;;;25.42;10.43;;;;;;;8.58;100.00;62885.84;4952811;28;20245;-74
2022/10/17 07:02:31;;;;;;;20.17;10.27;;;;;;;8.68;100.00;62893.16;4964317;28;20260;-75
2022/10/17 07:04:58;;;;;;;21.73;12.40;;;;;;;8.68;100.00;62893.66;4963052;29;20467;-76
2022/10/17 07:07:26;;;;;;;20.13;11.40;;;;;;;8.89;100.00;62912.28;4964217;28;20229;-76
2022/10/17 07:09:53;;;;;;;15.98;10.48;;;;;;;9.02;100.00;62925.75;4959398;29;20213;-75
2022/10/17 07:12:20;;;;;;;21.45;10.50;;;;;;;9.03;100.00;62927.28;4956919;28;20279;-75
2022/10/17 07:14:49;;;;;;;23.58;11.23;;;;;;;9.11;100.00;62932.50;4966628;29;20205;-75
2022/10/17 07:17:16;;;;;;;16.10;10.07;;;;;;;9.35;100.00;62967.47;4965127;28;20259;-74
2022/10/17 07:19:43;;;;;;;14.90;9.20;;;;;;;9.54;100.00;62979.50;4968872;28;20199;-76
2022/10/17 07:22:10;;;;;;;15.05;9.70;;;;;;;9.69;100.00;62997.03;4968345;28;20248;-76
2022/10/17 07:24:38;;;;;;;10.23;7.95;;;;;;;9.81;96.91;63009.97;4966844;29;20509;-76
2022/10/17 07:27:05;;;;;;;11.70;7.68;;;;;;;9.82;96.92;63007.94;4967857;29;20306;-75
2022/10/17 07:29:32;;;;;;;9.65;7.18;;;;;;;9.90;96.81;63019.28;4967233;29;20243;-75
2022/10/17 07:31:58;;;;;;;9.13;6.25;;;;;;;10.08;96.76;63040.44;4974456;28;20216;-75
2022/10/17 07:34:29;;;;;;;7.55;5.95;;;;;;;10.16;95.79;63048.22;4967219;29;20409;-74
2022/10/17 07:36:56;;;;;;;10.15;6.07;;;;;;;10.24;94.71;63057.00;4962049;28;20201;-76
2022/10/17 07:39:23;;;;;;;6.15;5.55;;;;;;;10.50;92.68;63083.38;4967047;29;20267;-74
2022/10/17 07:41:51;;;;;;;6.20;5.60;;;;;;;10.65;92.16;63098.41;4957185;28;20216;-75
2022/10/17 07:44:18;;;;;;;10.48;6.43;;;;;;;10.73;91.38;63104.66;4964536;29;20247;-75
2022/10/17 07:46:45;;;;;;;7.05;6.30;;;;;;;10.96;88.92;63128.47;4967682;29;20211;-76
2022/10/17 07:49:12;;;;;;;9.55;5.90;;;;;;;10.94;89.19;63128.44;4966728;28;20237;-75
2022/10/17 07:51:39;;;;;;;7.30;6.60;;;;;;;11.14;88.98;63149.13;4973648;28;20197;-75
2022/10/17 07:54:06;;;;;;;7.05;6.22;;;;;;;11.30;88.45;63166.22;4980430;28;20232;-75
2022/10/17 07:56:33;;;;;;;9.50;6.95;;;;;;;11.47;88.39;63180.75;4966128;29;20244;-76
2022/10/17 07:59:01;;;;;;;7.43;6.72;;;;;;;11.57;85.43;63189.09;4964333;29;20224;-75
2022/10/17 08:01:27;;;;;;;6.93;6.32;;;;;;;11.62;84.45;63204.47;4967513;29;20200;-75
2022/10/17 08:03:54;;;;;;;7.70;6.63;;;;;;;11.81;83.24;63221.09;4966456;28;20315;-75
2022/10/17 08:06:21;;;;;;;8.18;6.78;;;;;;;11.80;80.85;63214.47;4966951;29;20233;-76
2022/10/17 08:08:48;;;;;;;8.85;6.18;;;;;;;11.95;79.94;63230.00;4954841;28;20232;-76
2022/10/17 08:11:15;;;;;;;7.65;6.55;;;;;;;12.14;79.33;63247.13;4948828;29;20211;-77
2022/10/17 08:13:42;;;;;;;16.45;6.95;;;;;;;12.22;77.69;63258.50;4967046;29;20576;-76
2022/10/17 08:16:12;;;;;;;8.30;6.85;;;;;;;12.22;75.43;63257.97;4966913;29;20205;-75
2022/10/17 08:18:40;;;;;;;10.00;7.00;;;;;;;12.30;73.92;63266.78;4965055;28;20229;-75
2022/10/17 08:21:07;;;;;;;8.15;6.47;;;;;;;12.47;70.93;63281.88;4965448;29;20271;-76
2022/10/17 08:23:34;;;;;;;11.80;5.85;;;;;;;12.54;70.62;63291.16;4965389;29;20368;-77
2022/10/17 08:26:02;;;;;;;6.30;5.53;;;;;;;12.69;69.73;63309.78;4965435;29;20502;-75
2022/10/17 08:28:29;;;;;;;12.82;6.13;;;;;;;12.97;67.16;63330.09;4948068;29;20300;-76
2022/10/17 08:31:03;;;;;;;11.90;5.50;;;;;;;13.17;64.14;63356.50;4959619;29;20283;-76
2022/10/17 08:33:32;;;;;;;7.82;5.78;;;;;;;13.29;59.92;63368.94;4965804;29;20267;-76
2022/10/17 08:35:59;;;;;;;14.80;5.55;;;;;;;13.26;59.98;63367.88;4960854;29;20211;-74
2022/10/17 08:38:26;;;;;;;6.97;5.53;;;;;;;13.34;57.55;63376.19;4964602;28;20288;-74
2022/10/17 08:40:53;;;;;;;7.82;5.38;;;;;;;13.46;53.49;63388.63;4965801;29;20205;-74
2022/10/17 08:43:40;;;;;;;8.90;5.82;;;;;;;13.67;54.56;63412.97;4964266;29;20232;-75
2022/10/17 08:46:08;;;;;;;5.95;4.72;;;;;;;13.87;52.54;63426.06;4967322;29;20216;-76
2022/10/17 08:48:41;;;;;;;5.15;4.07;;;;;;;14.05;50.35;63446.81;4966306;28;20440;-75
2022/10/17 08:51:15;;;;;;;5.03;3.00;;;;;;;14.12;47.81;63454.06;4968063;29;20204;-76
2022/10/17 08:53:49;;;;;;;4.03;3.55;;;;;;;14.36;47.96;63479.00;4962285;29;20220;-75
2022/10/17 08:56:19;;;;;;;5.82;3.55;;;;;;;14.40;45.04;63485.72;4961227;29;20236;-76
2022/10/17 08:58:46;;;;;;;4.65;3.53;;;;;;;14.48;46.63;63491.47;4965595;29;20216;-76
2022/10/17 09:01:29;;;;;;;6.40;4.13;;;;;;;14.71;47.08;63517.91;4966325;29;20216;-76
2022/10/17 09:04:21;;;;;;;5.10;4.13;;;;;;;14.74;45.60;63516.41;4964277;28;20225;-75
2022/10/17 09:06:57;;;;;;;6.07;3.83;;;;;;;14.84;45.60;63531.94;4964383;29;21277;-75
2022/10/17 09:09:33;;;;;;;5.68;3.55;;;;;;;14.94;45.55;63539.25;4961196;29;20224;-75
2022/10/17 09:12:12;;;;;;;4.85;4.00;;;;;;;15.03;45.47;63548.59;4949352;29;20209;-76
2022/10/17 09:14:59;;;;;;;4.20;3.80;;;;;;;15.18;45.20;63566.22;4967938;29;20196;-75
2022/10/17 09:17:38;;;;;;;4.53;3.78;;;;;;;15.33;45.21;63576.69;4964583;28;20227;-76
2022/10/17 09:20:11;;;;;;;13.70;5.18;;;;;;;15.32;44.43;63578.75;4965030;29;20337;-76
2022/10/17 09:22:43;;;;;;;9.95;3.63;;;;;;;15.35;43.18;63578.75;4964827;29;20228;-75
2022/10/17 09:25:13;;;;;;;4.28;3.85;;;;;;;15.25;43.52;63570.94;4961967;29;20219;-75
2022/10/17 09:27:43;;;;;;;7.47;3.72;;;;;;;15.16;42.02;63564.66;4961344;29;20252;-75
2022/10/17 09:30:25;;;;;;;3.05;2.42;;;;;;;15.20;39.01;63566.28;4959828;28;20220;-74
2022/10/17 09:32:53;;;;;;;3.58;2.40;;;;;;;15.22;38.80;63570.91;4961993;28;20240;-76
2022/10/17 09:35:22;;;;;;;3.50;2.80;;;;;;;15.42;40.46;63589.16;4962721;29;20521;-74
2022/10/17 09:37:50;;;;;;;2.90;2.70;;;;;;;15.55;39.89;63604.72;4961643;28;20255;-75
2022/10/17 09:40:22;;;;;;;4.30;3.20;;;;;;;15.66;40.79;63613.56;4963080;29;20215;-74
2022/10/17 09:42:51;;;;;;;7.35;3.28;;;;;;;15.79;40.80;63632.75;4961936;28;20224;-75
2022/10/17 09:45:23;;;;;;;4.70;3.55;;;;;;;15.87;40.51;63637.97;4966102;28;20230;-75
2022/10/17 09:47:57;;;;;;;4.30;3.67;;;;;;;15.96;40.99;63645.28;4962559;28;20282;-75
2022/10/17 09:50:28;;;;;;;6.40;3.42;;;;;;;15.87;40.87;63637.97;4962449;29;20207;-75
2022/10/17 09:52:57;;;;;;;3.22;3.03;;;;;;;15.91;41.64;63642.66;4962584;29;20287;-76
2022/10/17 09:55:32;;;;;;;3.28;3.08;;;;;;;16.13;41.10;63665.53;4959925;28;20239;-75
2022/10/17 09:58:01;;;;;;;4.35;3.95;;;;;;;16.34;41.71;63686.88;4961129;28;20430;-75
2022/10/17 10:00:30;;;;;;;4.35;3.53;;;;;;;16.28;40.37;63680.59;4958961;28;20382;-75
2022/10/17 10:03:13;;;;;;;6.13;3.65;;;;;;;15.94;41.93;63648.34;4963516;29;20230;-75
2022/10/17 10:05:43;;;;;;;7.95;4.25;;;;;;;16.12;42.26;63663.97;4963988;28;20204;-75
2022/10/17 10:08:15;;;;;;;4.55;4.10;;;;;;;16.31;40.18;63686.28;4961172;29;20282;-75
2022/10/17 10:10:43;;;;;;;4.43;3.55;;;;;;;16.35;40.92;63682.22;4965746;29;20200;-75
2022/10/17 10:13:20;;;;;;;5.10;4.60;;;;;;;16.26;41.41;63680.56;4962293;29;20356;-75
2022/10/17 10:15:48;;;;;;;6.00;4.40;;;;;;;16.32;42.70;63684.78;4964016;29;20196;-75
2022/10/17 10:18:30;;;;;;;5.18;3.45;;;;;;;16.51;40.75;63704.03;4954652;28;20317;-75
2022/10/17 10:21:09;;;;;;;5.43;4.00;;;;;;;16.51;40.69;63707.13;4956956;29;20208;-75
2022/10/17 10:23:38;;;;;;;6.35;4.03;;;;;;;16.28;40.33;63683.19;4965447;29;20427;-76
2022/10/17 10:26:21;;;;;;;3.80;3.40;;;;;;;16.35;41.06;63684.78;4962118;29;20546;-74
2022/10/17 10:28:55;;;;;;;4.68;3.08;;;;;;;16.50;39.61;63695.28;4955485;29;20239;-76
2022/10/17 10:31:28;;;;;;;9.20;3.55;;;;;;;16.46;40.23;63698.81;4964382;29;20275;-75
2022/10/17 10:33:56;;;;;;;6.78;3.35;;;;;;;16.44;39.91;63694.16;4964607;29;20232;-75
2022/10/17 10:36:24;;;;;;;4.22;3.78;;;;;;;16.55;39.76;63708.72;4964701;29;20247;-76
2022/10/17 10:38:55;;;;;;;5.18;3.50;;;;;;;16.69;40.48;63720.19;4964237;28;20239;-75
2022/10/17 10:41:26;;;;;;;4.07;3.78;;;;;;;16.74;39.42;63728.47;4965703;28;20262;-76
2022/10/17 10:43:54;;;;;;;3.38;3.08;;;;;;;16.75;39.02;63729.00;4969796;29;20224;-75
2022/10/17 10:46:24;;;;;;;11.57;4.10;;;;;;;16.70;39.23;63724.34;4961937;28;20227;-76
2022/10/17 10:48:54;;;;;;;3.63;3.10;;;;;;;16.65;38.58;63718.59;4968009;28;20247;-75
2022/10/17 10:51:30;;;;;;;7.13;3.60;;;;;;;16.69;38.39;63720.19;4964303;29;20204;-74
2022/10/17 10:54:05;;;;;;;3.92;3.08;;;;;;;16.69;39.07;63720.72;4963425;29;20216;-74
2022/10/17 10:56:38;;;;;;;3.88;3.60;;;;;;;16.97;38.73;63751.91;4951929;29;20200;-75
2022/10/17 10:59:13;;;;;;;4.13;2.70;;;;;;;17.01;38.90;63756.06;4963254;29;20228;-75
2022/10/17 11:01:48;;;;;;;3.15;2.95;;;;;;;17.01;39.30;63754.03;4965746;29;20563;-75
2022/10/17 11:04:26;;;;;;;3.13;2.83;;;;;;;17.18;39.55;63771.72;4967706;29;20212;-75
2022/10/17 11:07:00;;;;;;;3.72;2.72;;;;;;;17.42;39.03;63798.22;4968658;28;20239;-75
2022/10/17 11:09:37;;;;;;;2.92;2.63;;;;;;;17.31;38.22;63787.28;4967245;29;20222;-76
2022/10/17 11:12:11;;;;;;;2.63;2.42;;;;;;;17.46;36.42;63802.41;4969094;29;20204;-74
2022/10/17 11:14:44;;;;;;;3.05;2.85;;;;;;;17.56;37.31;63815.91;4966410;29;20759;-76
2022/10/17 11:17:21;;;;;;;3.55;2.70;;;;;;;17.81;38.12;63841.44;4967122;29;21502;-75
2022/10/17 11:19:56;;;;;;;2.80;2.60;;;;;;;17.89;37.31;63847.19;4969351;29;20254;-75
2022/10/17 11:22:30;;;;;;;5.50;2.95;;;;;;;17.79;37.31;63834.19;4967734;28;20468;-75
2022/10/17 11:25:00;;;;;;;3.08;2.60;;;;;;;17.86;37.31;63846.66;4968525;29;20389;-76
2022/10/17 11:27:30;;;;;;;3.03;2.70;;;;;;;17.88;36.92;63843.56;4958770;28;20236;-76
2022/10/17 11:29:57;;;;;;;3.53;2.95;;;;;;;17.96;36.73;63852.44;4965841;29;20232;-75
2022/10/17 11:32:31;;;;;;;3.63;2.72;;;;;;;17.99;37.46;63858.13;4964265;29;20268;-75
2022/10/17 11:35:03;;;;;;;3.25;3.05;;;;;;;18.11;37.83;63872.69;4967331;29;20211;-75
2022/10/17 11:37:35;;;;;;;2.50;2.30;;;;;;;18.22;36.94;63879.50;4968324;29;20544;-76
2022/10/17 11:40:06;;;;;;;3.28;2.97;;;;;;;18.27;35.86;63889.34;4959311;29;20212;-76
2022/10/17 11:42:53;;;;;;;5.07;2.20;;;;;;;18.38;34.90;63893.59;4966460;29;20222;-76